PrentiSS Brown — WDE6848 — position and weather

sailwx.info

Track history (hours):
 
Tides and Currents Weather Stations Pressure Air Temp Water Temp Dewpoint Dewpoint Depression Visibility Wind Speed Wind Dir Waves Ship Positions

PrentiSS Brown

Owner: Port City Marine Services Inc, Muskegon, MI. More information available from US FCC via Universal Licensing System and Coast Guard Vessel Documentation Center.

Last reported at 2015-Apr-28 00:33 UTC. Time now 2015-Apr-28 00:37 UTC.
Position N 45°19' W 085°18'.

; draft 5.3 m.

Type: Other ship. MMSI: 366922280.

Date/timePositionNaut miles runAvg speedWind from/ knotsBaromVisibWave heightAir tempDewpointWater temp
2015-Apr-28 00:33N 45°19' W 085°18'3 2.8
2015-Apr-27 23:33N 45°19' W 085°22'9 9.5
2015-Apr-27 22:33N 45°15' W 085°34'9 9.4
2015-Apr-27 21:33N 45°09' W 085°44'9 9.4
2015-Apr-27 20:33N 45°03' W 085°54'  
2015-Apr-24 09:33N 44°56' W 086°09'9 8.7
2015-Apr-24 08:33N 44°60' W 085°59'9 8.6
2015-Apr-24 07:33N 45°06' W 085°50'9 8.7
2015-Apr-24 06:33N 45°11' W 085°40'8 8.1
2015-Apr-24 05:33N 45°16' W 085°31'9 8.7
2015-Apr-24 04:33N 45°20' W 085°20'2 1.9
2015-Apr-24 03:33N 45°19' W 085°18'0 0.0
2015-Apr-24 02:33N 45°19' W 085°18'0 0.0
2015-Apr-24 01:33N 45°19' W 085°18'0 0.0
2015-Apr-24 00:33N 45°19' W 085°18'0 0.0
2015-Apr-23 23:33N 45°19' W 085°18'0 0.0
2015-Apr-23 22:33N 45°19' W 085°18'0 0.0
2015-Apr-23 21:33N 45°19' W 085°18'0 0.0
2015-Apr-23 20:33N 45°19' W 085°18'0 0.1
2015-Apr-23 19:33N 45°19' W 085°18'5 5.1
2015-Apr-23 18:33N 45°23' W 085°23'9 9.5
2015-Apr-23 17:33N 45°28' W 085°33'9 9.3
2015-Apr-23 16:33N 45°36' W 085°42'10 9.6
2015-Apr-23 15:33N 45°45' W 085°47'8 8.1
2015-Apr-23 14:33N 45°47' W 085°58'  
2015-Apr-18 07:33N 44°53' W 086°18'9 8.7
2015-Apr-18 06:33N 44°57' W 086°07'9 8.8
2015-Apr-18 05:33N 45°01' W 085°56'13 8.7
2015-Apr-18 04:04N 45°10' W 085°43'4 8.7
2015-Apr-18 03:33N 45°13' W 085°38'9 8.8
2015-Apr-18 02:33N 45°17' W 085°27'7 7.5
2015-Apr-18 01:33N 45°19' W 085°17'0 0.4
2015-Apr-18 00:33N 45°19' W 085°18'  
Track history (hours):
 
Tides and Currents Weather Stations Pressure Air Temp Water Temp Dewpoint Dewpoint Depression Visibility Wind Speed Wind Dir Waves Ship Positions

PrentiSS Brown

Owner: Port City Marine Services Inc, Muskegon, MI. More information available from US FCC via Universal Licensing System and Coast Guard Vessel Documentation Center.

Last reported at 2015-Apr-28 00:33 UTC. Time now 2015-Apr-28 00:37 UTC.
Position N 45°19' W 085°18'.

; draft 5.3 m.

Type: Other ship. MMSI: 366922280.

Date/timePositionNaut miles runAvg speedWind from/ knotsBaromVisibWave heightAir tempDewpointWater temp
2015-Apr-28 00:33N 45°19' W 085°18'3 2.8
2015-Apr-27 23:33N 45°19' W 085°22'9 9.5
2015-Apr-27 22:33N 45°15' W 085°34'9 9.4
2015-Apr-27 21:33N 45°09' W 085°44'9 9.4
2015-Apr-27 20:33N 45°03' W 085°54'  
2015-Apr-24 09:33N 44°56' W 086°09'9 8.7
2015-Apr-24 08:33N 44°60' W 085°59'9 8.6
2015-Apr-24 07:33N 45°06' W 085°50'9 8.7
2015-Apr-24 06:33N 45°11' W 085°40'8 8.1
2015-Apr-24 05:33N 45°16' W 085°31'9 8.7
2015-Apr-24 04:33N 45°20' W 085°20'2 1.9
2015-Apr-24 03:33N 45°19' W 085°18'0 0.0
2015-Apr-24 02:33N 45°19' W 085°18'0 0.0
2015-Apr-24 01:33N 45°19' W 085°18'0 0.0
2015-Apr-24 00:33N 45°19' W 085°18'0 0.0
2015-Apr-23 23:33N 45°19' W 085°18'0 0.0
2015-Apr-23 22:33N 45°19' W 085°18'0 0.0
2015-Apr-23 21:33N 45°19' W 085°18'0 0.0
2015-Apr-23 20:33N 45°19' W 085°18'0 0.1
2015-Apr-23 19:33N 45°19' W 085°18'5 5.1
2015-Apr-23 18:33N 45°23' W 085°23'9 9.5
2015-Apr-23 17:33N 45°28' W 085°33'9 9.3
2015-Apr-23 16:33N 45°36' W 085°42'10 9.6
2015-Apr-23 15:33N 45°45' W 085°47'8 8.1
2015-Apr-23 14:33N 45°47' W 085°58'  
2015-Apr-18 07:33N 44°53' W 086°18'9 8.7
2015-Apr-18 06:33N 44°57' W 086°07'9 8.8
2015-Apr-18 05:33N 45°01' W 085°56'13 8.7
2015-Apr-18 04:04N 45°10' W 085°43'4 8.7
2015-Apr-18 03:33N 45°13' W 085°38'9 8.8
2015-Apr-18 02:33N 45°17' W 085°27'7 7.5
2015-Apr-18 01:33N 45°19' W 085°17'0 0.4
2015-Apr-18 00:33N 45°19' W 085°18'  

Dump ship's entire track history